sensor_id;sensor_type;location;lat;lon;timestamp;temperature;humidity
9083;DHT22;4577;48.704;9.000;2023-07-31T00:00:14;17.50;84.30
9083;DHT22;4577;48.704;9.000;2023-07-31T00:02:41;17.50;85.30
9083;DHT22;4577;48.704;9.000;2023-07-31T00:05:09;17.50;85.60
9083;DHT22;4577;48.704;9.000;2023-07-31T00:31:59;17.20;86.70
9083;DHT22;4577;48.704;9.000;2023-07-31T00:46:35;16.80;89.10
9083;DHT22;4577;48.704;9.000;2023-07-31T00:53:55;16.50;88.60
9083;DHT22;4577;48.704;9.000;2023-07-31T00:56:22;16.80;89.90
9083;DHT22;4577;48.704;9.000;2023-07-31T01:11:35;16.80;89.90
9083;DHT22;4577;48.704;9.000;2023-07-31T01:14:03;16.70;90.20
9083;DHT22;4577;48.704;9.000;2023-07-31T01:27:14;16.50;90.70
9083;DHT22;4577;48.704;9.000;2023-07-31T01:30:11;16.50;90.80
9083;DHT22;4577;48.704;9.000;2023-07-31T01:32:41;16.40;91.10
9083;DHT22;4577;48.704;9.000;2023-07-31T01:37:35;16.40;90.80
9083;DHT22;4577;48.704;9.000;2023-07-31T01:40:06;16.50;91.10
9083;DHT22;4577;48.704;9.000;2023-07-31T02:02:04;16.30;91.50
9083;DHT22;4577;48.704;9.000;2023-07-31T02:04:29;16.20;92.20
9083;DHT22;4577;48.704;9.000;2023-07-31T02:24:00;16.10;93.30
9083;DHT22;4577;48.704;9.000;2023-07-31T02:50:48;15.90;92.90
9083;DHT22;4577;48.704;9.000;2023-07-31T02:55:41;16.00;92.70
9083;DHT22;4577;48.704;9.000;2023-07-31T03:03:42;14.00;92.00
9083;DHT22;4577;48.704;9.000;2023-07-31T03:06:07;16.00;92.90
9083;DHT22;4577;48.704;9.000;2023-07-31T03:08:33;15.80;93.10
9083;DHT22;4577;48.704;9.000;2023-07-31T03:10:59;15.90;93.00
9083;DHT22;4577;48.704;9.000;2023-07-31T03:13:24;15.90;93.00
9083;DHT22;4577;48.704;9.000;2023-07-31T03:15:50;15.90;92.90
9083;DHT22;4577;48.704;9.000;2023-07-31T03:20:43;16.30;93.20
9083;DHT22;4577;48.704;9.000;2023-07-31T03:25:35;16.10;93.10
9083;DHT22;4577;48.704;9.000;2023-07-31T03:28:01;15.80;92.60
9083;DHT22;4577;48.704;9.000;2023-07-31T03:30:26;15.90;92.50
9083;DHT22;4577;48.704;9.000;2023-07-31T03:32:52;15.80;92.50
9083;DHT22;4577;48.704;9.000;2023-07-31T03:37:44;15.70;92.40
9083;DHT22;4577;48.704;9.000;2023-07-31T03:40:10;15.80;93.10
9083;DHT22;4577;48.704;9.000;2023-07-31T03:45:02;15.80;93.00
9083;DHT22;4577;48.704;9.000;2023-07-31T03:47:27;15.80;92.80
9083;DHT22;4577;48.704;9.000;2023-07-31T03:49:53;15.70;93.10
9083;DHT22;4577;48.704;9.000;2023-07-31T03:52:19;15.80;92.90
9083;DHT22;4577;48.704;9.000;2023-07-31T03:54:44;15.50;92.80
9083;DHT22;4577;48.704;9.000;2023-07-31T03:57:10;15.70;92.80
9083;DHT22;4577;48.704;9.000;2023-07-31T04:11:48;15.70;93.10
9083;DHT22;4577;48.704;9.000;2023-07-31T04:14:14;15.90;93.10
9083;DHT22;4577;48.704;9.000;2023-07-31T04:19:06;15.70;93.20
9083;DHT22;4577;48.704;9.000;2023-07-31T04:21:31;15.50;93.00
9083;DHT22;4577;48.704;9.000;2023-07-31T04:23:57;15.50;93.00
9083;DHT22;4577;48.704;9.000;2023-07-31T04:31:15;15.60;93.60
9083;DHT22;4577;48.704;9.000;2023-07-31T04:43:25;15.90;93.40
9083;DHT22;4577;48.704;9.000;2023-07-31T04:50:45;16.10;93.30
9083;DHT22;4577;48.704;9.000;2023-07-31T05:00:29;15.80;93.50
9083;DHT22;4577;48.704;9.000;2023-07-31T05:07:47;15.80;93.70
9083;DHT22;4577;48.704;9.000;2023-07-31T05:12:38;16.00;93.80
9083;DHT22;4577;48.704;9.000;2023-07-31T05:19:57;16.10;93.40
9083;DHT22;4577;48.704;9.000;2023-07-31T05:22:23;16.30;93.70
9083;DHT22;4577;48.704;9.000;2023-07-31T05:29:44;16.00;93.80
9083;DHT22;4577;48.704;9.000;2023-07-31T05:34:40;16.10;93.70
9083;DHT22;4577;48.704;9.000;2023-07-31T05:37:06;15.80;93.80
9083;DHT22;4577;48.704;9.000;2023-07-31T05:44:24;16.10;93.90
9083;DHT22;4577;48.704;9.000;2023-07-31T05:46:49;16.30;94.00
9083;DHT22;4577;48.704;9.000;2023-07-31T05:49:15;16.30;93.70
9083;DHT22;4577;48.704;9.000;2023-07-31T05:51:41;16.40;94.00
9083;DHT22;4577;48.704;9.000;2023-07-31T05:56:32;16.40;94.10
9083;DHT22;4577;48.704;9.000;2023-07-31T06:01:25;16.30;93.90
9083;DHT22;4577;48.704;9.000;2023-07-31T06:06:17;17.10;94.40
9083;DHT22;4577;48.704;9.000;2023-07-31T06:11:08;16.50;93.50
9083;DHT22;4577;48.704;9.000;2023-07-31T06:16:01;16.70;93.70
9083;DHT22;4577;48.704;9.000;2023-07-31T06:23:22;16.80;93.00
9083;DHT22;4577;48.704;9.000;2023-07-31T06:28:14;16.90;92.80
9083;DHT22;4577;48.704;9.000;2023-07-31T06:33:05;16.80;92.90
9083;DHT22;4577;48.704;9.000;2023-07-31T06:42:49;17.00;92.50
9083;DHT22;4577;48.704;9.000;2023-07-31T06:47:41;17.20;92.60
9083;DHT22;4577;48.704;9.000;2023-07-31T06:50:07;17.20;91.90
9083;DHT22;4577;48.704;9.000;2023-07-31T06:52:33;17.50;92.20
9083;DHT22;4577;48.704;9.000;2023-07-31T06:55:17;17.40;91.80
9083;DHT22;4577;48.704;9.000;2023-07-31T06:57:50;17.20;91.80
9083;DHT22;4577;48.704;9.000;2023-07-31T07:00:17;17.30;91.20
9083;DHT22;4577;48.704;9.000;2023-07-31T07:02:42;17.60;91.80
9083;DHT22;4577;48.704;9.000;2023-07-31T07:05:09;17.40;91.40
9083;DHT22;4577;48.704;9.000;2023-07-31T07:07:35;17.60;91.20
9083;DHT22;4577;48.704;9.000;2023-07-31T07:12:31;17.40;91.10
9083;DHT22;4577;48.704;9.000;2023-07-31T07:19:49;17.70;90.30
9083;DHT22;4577;48.704;9.000;2023-07-31T07:24:41;17.70;89.80
9083;DHT22;4577;48.704;9.000;2023-07-31T07:27:07;18.00;90.10
9083;DHT22;4577;48.704;9.000;2023-07-31T07:29:34;17.80;89.60
9083;DHT22;4577;48.704;9.000;2023-07-31T07:32:00;17.70;89.80
9083;DHT22;4577;48.704;9.000;2023-07-31T07:34:27;17.80;89.70
9083;DHT22;4577;48.704;9.000;2023-07-31T07:44:12;18.10;88.90
9083;DHT22;4577;48.704;9.000;2023-07-31T07:51:30;18.40;88.30
9083;DHT22;4577;48.704;9.000;2023-07-31T07:56:24;18.30;86.50
9083;DHT22;4577;48.704;9.000;2023-07-31T08:01:17;18.80;86.70
9083;DHT22;4577;48.704;9.000;2023-07-31T08:06:09;18.30;85.50
9083;DHT22;4577;48.704;9.000;2023-07-31T08:08:37;18.00;85.10
9083;DHT22;4577;48.704;9.000;2023-07-31T08:11:03;18.10;86.60
9083;DHT22;4577;48.704;9.000;2023-07-31T08:15:55;18.30;86.90
9083;DHT22;4577;48.704;9.000;2023-07-31T08:18:21;18.30;85.80
9083;DHT22;4577;48.704;9.000;2023-07-31T08:28:06;18.50;85.10
9083;DHT22;4577;48.704;9.000;2023-07-31T08:30:32;18.60;84.70
9083;DHT22;4577;48.704;9.000;2023-07-31T08:35:27;18.60;84.70
9083;DHT22;4577;48.704;9.000;2023-07-31T08:37:55;18.60;85.00
9083;DHT22;4577;48.704;9.000;2023-07-31T08:42:48;18.70;84.30
9083;DHT22;4577;48.704;9.000;2023-07-31T08:45:19;18.90;85.00
9083;DHT22;4577;48.704;9.000;2023-07-31T08:47:50;18.90;85.20
9083;DHT22;4577;48.704;9.000;2023-07-31T08:50:20;18.90;85.20
9083;DHT22;4577;48.704;9.000;2023-07-31T08:52:47;18.70;85.30
9083;DHT22;4577;48.704;9.000;2023-07-31T08:57:40;18.80;85.00
9083;DHT22;4577;48.704;9.000;2023-07-31T09:00:08;18.80;83.90
9083;DHT22;4577;48.704;9.000;2023-07-31T09:02:38;19.00;84.30
9083;DHT22;4577;48.704;9.000;2023-07-31T09:05:09;19.10;84.40
9083;DHT22;4577;48.704;9.000;2023-07-31T09:10:03;19.00;84.70
9083;DHT22;4577;48.704;9.000;2023-07-31T09:17:34;19.50;83.80
9083;DHT22;4577;48.704;9.000;2023-07-31T09:20:17;19.50;84.00
9083;DHT22;4577;48.704;9.000;2023-07-31T09:22:44;19.50;83.10
9083;DHT22;4577;48.704;9.000;2023-07-31T09:27:47;19.40;82.80
9083;DHT22;4577;48.704;9.000;2023-07-31T09:30:13;19.40;83.50
9083;DHT22;4577;48.704;9.000;2023-07-31T09:32:39;19.40;82.70
9083;DHT22;4577;48.704;9.000;2023-07-31T09:35:27;19.40;83.10
9083;DHT22;4577;48.704;9.000;2023-07-31T09:37:54;19.40;82.20
9083;DHT22;4577;48.704;9.000;2023-07-31T09:40:34;19.40;82.40
9083;DHT22;4577;48.704;9.000;2023-07-31T09:43:06;19.50;82.70
9083;DHT22;4577;48.704;9.000;2023-07-31T09:45:35;19.60;82.50
9083;DHT22;4577;48.704;9.000;2023-07-31T09:48:02;19.70;83.00
9083;DHT22;4577;48.704;9.000;2023-07-31T09:50:28;19.80;82.80
9083;DHT22;4577;48.704;9.000;2023-07-31T09:52:54;19.80;82.20
9083;DHT22;4577;48.704;9.000;2023-07-31T09:55:20;19.80;81.80
9083;DHT22;4577;48.704;9.000;2023-07-31T09:57:47;19.80;82.20
9083;DHT22;4577;48.704;9.000;2023-07-31T10:00:18;19.80;82.20
9083;DHT22;4577;48.704;9.000;2023-07-31T10:02:46;19.90;82.20
9083;DHT22;4577;48.704;9.000;2023-07-31T10:05:14;19.90;81.60
9083;DHT22;4577;48.704;9.000;2023-07-31T10:07:52;20.00;80.40
9083;DHT22;4577;48.704;9.000;2023-07-31T10:10:20;20.00;80.10
9083;DHT22;4577;48.704;9.000;2023-07-31T10:12:48;20.00;79.50
9083;DHT22;4577;48.704;9.000;2023-07-31T10:15:14;20.10;79.50
9083;DHT22;4577;48.704;9.000;2023-07-31T10:17:40;19.90;79.20
9083;DHT22;4577;48.704;9.000;2023-07-31T10:20:07;19.90;79.70
9083;DHT22;4577;48.704;9.000;2023-07-31T10:22:34;19.90;80.00
9083;DHT22;4577;48.704;9.000;2023-07-31T10:25:00;20.10;80.20
9083;DHT22;4577;48.704;9.000;2023-07-31T10:27:26;20.20;79.80
9083;DHT22;4577;48.704;9.000;2023-07-31T10:29:54;20.30;79.70
9083;DHT22;4577;48.704;9.000;2023-07-31T10:32:21;20.40;78.80
9083;DHT22;4577;48.704;9.000;2023-07-31T10:34:48;20.30;77.70
9083;DHT22;4577;48.704;9.000;2023-07-31T10:40:07;20.30;77.90
9083;DHT22;4577;48.704;9.000;2023-07-31T10:42:52;20.30;78.60
9083;DHT22;4577;48.704;9.000;2023-07-31T10:45:37;20.20;77.70
9083;DHT22;4577;48.704;9.000;2023-07-31T10:48:14;20.20;78.00
9083;DHT22;4577;48.704;9.000;2023-07-31T10:50:51;20.30;78.10
9083;DHT22;4577;48.704;9.000;2023-07-31T10:53:30;20.60;77.70
9083;DHT22;4577;48.704;9.000;2023-07-31T10:56:03;20.70;76.70
9083;DHT22;4577;48.704;9.000;2023-07-31T10:58:29;20.70;76.60
9083;DHT22;4577;48.704;9.000;2023-07-31T11:00:58;20.70;76.20
9083;DHT22;4577;48.704;9.000;2023-07-31T11:03:26;20.60;76.80
9083;DHT22;4577;48.704;9.000;2023-07-31T11:05:53;20.70;76.80
9083;DHT22;4577;48.704;9.000;2023-07-31T11:13:33;20.70;77.40
9083;DHT22;4577;48.704;9.000;2023-07-31T11:16:00;20.70;76.90
9083;DHT22;4577;48.704;9.000;2023-07-31T11:18:26;20.70;77.10
9083;DHT22;4577;48.704;9.000;2023-07-31T11:20:52;20.70;77.50
9083;DHT22;4577;48.704;9.000;2023-07-31T11:23:19;20.70;77.50
9083;DHT22;4577;48.704;9.000;2023-07-31T11:25:45;20.60;77.90
9083;DHT22;4577;48.704;9.000;2023-07-31T11:28:13;20.70;77.70
9083;DHT22;4577;48.704;9.000;2023-07-31T11:30:40;20.60;77.50
9083;DHT22;4577;48.704;9.000;2023-07-31T11:33:07;20.70;77.60
9083;DHT22;4577;48.704;9.000;2023-07-31T11:35:40;20.70;77.90
9083;DHT22;4577;48.704;9.000;2023-07-31T11:38:26;20.80;76.70
9083;DHT22;4577;48.704;9.000;2023-07-31T11:40:53;20.80;77.00
9083;DHT22;4577;48.704;9.000;2023-07-31T11:43:20;20.80;77.50
9083;DHT22;4577;48.704;9.000;2023-07-31T11:45:58;20.70;77.40
9083;DHT22;4577;48.704;9.000;2023-07-31T11:48:25;20.80;77.40
9083;DHT22;4577;48.704;9.000;2023-07-31T11:50:53;20.70;77.20
9083;DHT22;4577;48.704;9.000;2023-07-31T11:55:51;20.70;77.40
9083;DHT22;4577;48.704;9.000;2023-07-31T11:58:18;20.80;77.50
9083;DHT22;4577;48.704;9.000;2023-07-31T12:00:45;20.70;77.00
9083;DHT22;4577;48.704;9.000;2023-07-31T12:03:11;20.70;77.20
9083;DHT22;4577;48.704;9.000;2023-07-31T12:05:38;20.80;77.40
9083;DHT22;4577;48.704;9.000;2023-07-31T12:08:09;20.80;77.30
9083;DHT22;4577;48.704;9.000;2023-07-31T12:10:36;20.80;76.90
9083;DHT22;4577;48.704;9.000;2023-07-31T12:13:19;20.70;76.60
9083;DHT22;4577;48.704;9.000;2023-07-31T12:15:45;20.70;76.40
9083;DHT22;4577;48.704;9.000;2023-07-31T12:18:16;20.70;76.30
9083;DHT22;4577;48.704;9.000;2023-07-31T12:20:46;20.70;76.80
9083;DHT22;4577;48.704;9.000;2023-07-31T12:23:22;20.70;76.50
9083;DHT22;4577;48.704;9.000;2023-07-31T12:26:19;20.70;76.00
9083;DHT22;4577;48.704;9.000;2023-07-31T12:28:47;20.70;76.60
9083;DHT22;4577;48.704;9.000;2023-07-31T12:31:17;20.60;76.10
9083;DHT22;4577;48.704;9.000;2023-07-31T12:33:44;20.60;76.40
9083;DHT22;4577;48.704;9.000;2023-07-31T12:36:12;20.60;76.20
9083;DHT22;4577;48.704;9.000;2023-07-31T12:38:39;20.70;76.80
9083;DHT22;4577;48.704;9.000;2023-07-31T12:41:04;20.50;77.10
9083;DHT22;4577;48.704;9.000;2023-07-31T12:43:32;20.60;77.50
9083;DHT22;4577;48.704;9.000;2023-07-31T12:45:59;20.50;77.50
9083;DHT22;4577;48.704;9.000;2023-07-31T12:48:25;20.70;78.50
9083;DHT22;4577;48.704;9.000;2023-07-31T12:50:50;20.80;77.00
9083;DHT22;4577;48.704;9.000;2023-07-31T12:53:16;20.90;77.50
9083;DHT22;4577;48.704;9.000;2023-07-31T12:55:42;21.00;76.90
9083;DHT22;4577;48.704;9.000;2023-07-31T12:58:08;21.20;77.30
9083;DHT22;4577;48.704;9.000;2023-07-31T13:00:33;21.10;75.80
9083;DHT22;4577;48.704;9.000;2023-07-31T13:03:00;21.20;77.60
9083;DHT22;4577;48.704;9.000;2023-07-31T13:05:26;21.20;76.70
9083;DHT22;4577;48.704;9.000;2023-07-31T13:10:18;21.40;75.80
9083;DHT22;4577;48.704;9.000;2023-07-31T13:12:44;21.50;76.30
9083;DHT22;4577;48.704;9.000;2023-07-31T13:15:10;21.40;76.20
9083;DHT22;4577;48.704;9.000;2023-07-31T13:17:36;21.50;76.80
9083;DHT22;4577;48.704;9.000;2023-07-31T13:20:02;21.50;76.20
9083;DHT22;4577;48.704;9.000;2023-07-31T13:22:29;21.40;76.50
9083;DHT22;4577;48.704;9.000;2023-07-31T13:24:55;21.20;75.40
9083;DHT22;4577;48.704;9.000;2023-07-31T13:27:20;21.00;75.80
9083;DHT22;4577;48.704;9.000;2023-07-31T13:29:53;21.10;76.80
9083;DHT22;4577;48.704;9.000;2023-07-31T13:32:20;21.10;76.80
9083;DHT22;4577;48.704;9.000;2023-07-31T13:34:46;21.30;77.00
9083;DHT22;4577;48.704;9.000;2023-07-31T13:37:12;21.40;76.90
9083;DHT22;4577;48.704;9.000;2023-07-31T13:39:39;21.40;76.80
9083;DHT22;4577;48.704;9.000;2023-07-31T13:42:05;21.40;76.90
9083;DHT22;4577;48.704;9.000;2023-07-31T13:44:43;21.60;77.40
9083;DHT22;4577;48.704;9.000;2023-07-31T13:47:09;21.60;76.00
9083;DHT22;4577;48.704;9.000;2023-07-31T13:49:35;21.50;76.40
9083;DHT22;4577;48.704;9.000;2023-07-31T13:52:02;21.60;77.20
9083;DHT22;4577;48.704;9.000;2023-07-31T13:54:28;21.50;76.00
9083;DHT22;4577;48.704;9.000;2023-07-31T13:56:53;21.50;76.50
9083;DHT22;4577;48.704;9.000;2023-07-31T13:59:19;21.60;76.50
9083;DHT22;4577;48.704;9.000;2023-07-31T14:01:45;21.70;75.00
9083;DHT22;4577;48.704;9.000;2023-07-31T14:04:11;21.80;74.70
9083;DHT22;4577;48.704;9.000;2023-07-31T14:06:37;21.90;74.30
9083;DHT22;4577;48.704;9.000;2023-07-31T14:09:03;21.70;74.40
9083;DHT22;4577;48.704;9.000;2023-07-31T14:11:30;21.70;74.10
9083;DHT22;4577;48.704;9.000;2023-07-31T14:13:56;21.60;74.70
9083;DHT22;4577;48.704;9.000;2023-07-31T14:16:22;21.70;74.80
9083;DHT22;4577;48.704;9.000;2023-07-31T14:18:48;21.80;74.20
9083;DHT22;4577;48.704;9.000;2023-07-31T14:21:14;21.80;72.80
9083;DHT22;4577;48.704;9.000;2023-07-31T14:23:40;21.80;73.10
9083;DHT22;4577;48.704;9.000;2023-07-31T14:26:06;21.90;71.70
9083;DHT22;4577;48.704;9.000;2023-07-31T14:28:32;21.90;72.20
9083;DHT22;4577;48.704;9.000;2023-07-31T14:30:58;21.90;73.00
9083;DHT22;4577;48.704;9.000;2023-07-31T14:33:23;22.00;71.60
9083;DHT22;4577;48.704;9.000;2023-07-31T14:35:49;22.00;71.80
9083;DHT22;4577;48.704;9.000;2023-07-31T14:38:15;22.00;71.40
9083;DHT22;4577;48.704;9.000;2023-07-31T14:40:41;22.10;71.30
9083;DHT22;4577;48.704;9.000;2023-07-31T14:43:07;22.00;70.70
9083;DHT22;4577;48.704;9.000;2023-07-31T14:45:32;22.00;71.10
9083;DHT22;4577;48.704;9.000;2023-07-31T14:47:58;22.00;71.00
9083;DHT22;4577;48.704;9.000;2023-07-31T14:50:24;22.10;71.20
9083;DHT22;4577;48.704;9.000;2023-07-31T14:52:51;22.10;71.20
9083;DHT22;4577;48.704;9.000;2023-07-31T14:55:17;22.10;71.40
9083;DHT22;4577;48.704;9.000;2023-07-31T14:57:43;22.10;71.30
9083;DHT22;4577;48.704;9.000;2023-07-31T15:00:09;22.10;71.10
9083;DHT22;4577;48.704;9.000;2023-07-31T15:02:36;22.10;70.90
9083;DHT22;4577;48.704;9.000;2023-07-31T15:05:02;22.10;71.20
9083;DHT22;4577;48.704;9.000;2023-07-31T15:07:27;22.00;71.30
9083;DHT22;4577;48.704;9.000;2023-07-31T15:09:54;21.90;71.20
9083;DHT22;4577;48.704;9.000;2023-07-31T15:12:19;21.80;71.70
9083;DHT22;4577;48.704;9.000;2023-07-31T15:17:11;21.80;71.10
9083;DHT22;4577;48.704;9.000;2023-07-31T15:19:37;21.60;71.00
9083;DHT22;4577;48.704;9.000;2023-07-31T15:22:06;21.70;71.80
9083;DHT22;4577;48.704;9.000;2023-07-31T15:24:32;21.70;72.30
9083;DHT22;4577;48.704;9.000;2023-07-31T15:31:50;22.00;72.20
9083;DHT22;4577;48.704;9.000;2023-07-31T15:34:16;21.90;73.80
9083;DHT22;4577;48.704;9.000;2023-07-31T15:39:08;22.00;72.10
9083;DHT22;4577;48.704;9.000;2023-07-31T15:41:35;22.10;71.90
9083;DHT22;4577;48.704;9.000;2023-07-31T15:44:00;22.10;72.20
9083;DHT22;4577;48.704;9.000;2023-07-31T15:46:27;22.10;72.40
9083;DHT22;4577;48.704;9.000;2023-07-31T15:48:52;22.10;72.60
9083;DHT22;4577;48.704;9.000;2023-07-31T15:53:45;22.20;71.00
9083;DHT22;4577;48.704;9.000;2023-07-31T15:56:11;22.20;72.80
9083;DHT22;4577;48.704;9.000;2023-07-31T16:03:29;22.10;70.80
9083;DHT22;4577;48.704;9.000;2023-07-31T16:05:55;22.20;71.90
9083;DHT22;4577;48.704;9.000;2023-07-31T16:10:46;22.10;70.90
9083;DHT22;4577;48.704;9.000;2023-07-31T16:15:38;21.90;71.00
9083;DHT22;4577;48.704;9.000;2023-07-31T16:18:04;21.90;72.40
9083;DHT22;4577;48.704;9.000;2023-07-31T16:20:30;21.90;73.10
9083;DHT22;4577;48.704;9.000;2023-07-31T16:22:58;22.00;72.00
9083;DHT22;4577;48.704;9.000;2023-07-31T16:30:19;21.60;72.40
9083;DHT22;4577;48.704;9.000;2023-07-31T16:36:26;21.70;72.50
9083;DHT22;4577;48.704;9.000;2023-07-31T16:44:23;21.70;73.00
9083;DHT22;4577;48.704;9.000;2023-07-31T16:47:09;21.60;73.20
9083;DHT22;4577;48.704;9.000;2023-07-31T17:00:39;21.40;73.60
9083;DHT22;4577;48.704;9.000;2023-07-31T17:05:37;24.50;77.30
9083;DHT22;4577;48.704;9.000;2023-07-31T17:08:23;21.50;74.20
9083;DHT22;4577;48.704;9.000;2023-07-31T17:10:52;21.40;78.20
9083;DHT22;4577;48.704;9.000;2023-07-31T17:13:42;21.20;74.00
9083;DHT22;4577;48.704;9.000;2023-07-31T17:16:21;21.40;74.20
9083;DHT22;4577;48.704;9.000;2023-07-31T17:21:50;21.40;74.60
9083;DHT22;4577;48.704;9.000;2023-07-31T17:24:36;21.40;74.80
9083;DHT22;4577;48.704;9.000;2023-07-31T17:40:46;21.40;75.20
9083;DHT22;4577;48.704;9.000;2023-07-31T17:47:14;21.40;75.80
9083;DHT22;4577;48.704;9.000;2023-07-31T17:49:46;20.70;75.90
9083;DHT22;4577;48.704;9.000;2023-07-31T17:54:54;21.00;76.20
9083;DHT22;4577;48.704;9.000;2023-07-31T18:20:35;21.30;76.70
9083;DHT22;4577;48.704;9.000;2023-07-31T18:35:39;21.40;80.80
9083;DHT22;4577;48.704;9.000;2023-07-31T18:38:05;21.90;83.60
9083;DHT22;4577;48.704;9.000;2023-07-31T18:40:32;21.60;85.40
9083;DHT22;4577;48.704;9.000;2023-07-31T18:45:24;20.80;84.80
9083;DHT22;4577;48.704;9.000;2023-07-31T18:47:50;21.00;84.70
9083;DHT22;4577;48.704;9.000;2023-07-31T18:50:15;21.00;86.90
9083;DHT22;4577;48.704;9.000;2023-07-31T18:52:41;21.00;86.60
9083;DHT22;4577;48.704;9.000;2023-07-31T18:55:07;21.00;87.30
9083;DHT22;4577;48.704;9.000;2023-07-31T18:57:33;20.90;87.80
9083;DHT22;4577;48.704;9.000;2023-07-31T18:59:58;20.80;90.10
9083;DHT22;4577;48.704;9.000;2023-07-31T19:02:24;20.50;91.10
9083;DHT22;4577;48.704;9.000;2023-07-31T19:04:50;20.40;92.00
9083;DHT22;4577;48.704;9.000;2023-07-31T19:09:42;20.30;92.20
9083;DHT22;4577;48.704;9.000;2023-07-31T19:12:08;20.30;92.90
9083;DHT22;4577;48.704;9.000;2023-07-31T19:14:34;20.30;93.80
9083;DHT22;4577;48.704;9.000;2023-07-31T19:17:00;20.40;94.40
9083;DHT22;4577;48.704;9.000;2023-07-31T19:19:26;20.40;93.60
9083;DHT22;4577;48.704;9.000;2023-07-31T19:21:52;20.30;94.40
9083;DHT22;4577;48.704;9.000;2023-07-31T19:26:45;20.20;95.00
9083;DHT22;4577;48.704;9.000;2023-07-31T19:29:11;20.30;94.80
9083;DHT22;4577;48.704;9.000;2023-07-31T19:31:37;20.20;96.40
9083;DHT22;4577;48.704;9.000;2023-07-31T19:34:03;20.10;96.90
9083;DHT22;4577;48.704;9.000;2023-07-31T19:36:29;20.00;96.60
9083;DHT22;4577;48.704;9.000;2023-07-31T19:38:54;19.70;97.30
9083;DHT22;4577;48.704;9.000;2023-07-31T19:41:20;19.30;98.90
9083;DHT22;4577;48.704;9.000;2023-07-31T19:43:46;19.20;99.80
9083;DHT22;4577;48.704;9.000;2023-07-31T19:46:11;19.20;99.90
9083;DHT22;4577;48.704;9.000;2023-07-31T19:48:37;19.00;99.90
9083;DHT22;4577;48.704;9.000;2023-07-31T19:51:03;18.90;99.90
9083;DHT22;4577;48.704;9.000;2023-07-31T19:53:29;19.00;99.90
9083;DHT22;4577;48.704;9.000;2023-07-31T19:55:55;19.00;99.90
9083;DHT22;4577;48.704;9.000;2023-07-31T20:00:48;19.20;99.90
9083;DHT22;4577;48.704;9.000;2023-07-31T20:03:14;19.40;99.90
9083;DHT22;4577;48.704;9.000;2023-07-31T20:05:39;19.40;99.90
9083;DHT22;4577;48.704;9.000;2023-07-31T20:08:06;19.40;99.90
9083;DHT22;4577;48.704;9.000;2023-07-31T20:10:32;19.50;99.90
9083;DHT22;4577;48.704;9.000;2023-07-31T20:12:58;19.60;99.90
9083;DHT22;4577;48.704;9.000;2023-07-31T20:15:24;19.50;99.90
9083;DHT22;4577;48.704;9.000;2023-07-31T20:17:50;19.60;99.90
9083;DHT22;4577;48.704;9.000;2023-07-31T20:20:16;19.60;99.90
9083;DHT22;4577;48.704;9.000;2023-07-31T20:22:42;19.60;99.90
9083;DHT22;4577;48.704;9.000;2023-07-31T20:25:08;19.60;99.90
9083;DHT22;4577;48.704;9.000;2023-07-31T20:27:33;19.60;99.90
9083;DHT22;4577;48.704;9.000;2023-07-31T20:29:59;19.60;99.90
9083;DHT22;4577;48.704;9.000;2023-07-31T20:32:25;19.50;99.90
9083;DHT22;4577;48.704;9.000;2023-07-31T20:34:50;19.50;99.90
9083;DHT22;4577;48.704;9.000;2023-07-31T20:37:16;19.40;99.90
9083;DHT22;4577;48.704;9.000;2023-07-31T20:39:42;19.30;99.90
9083;DHT22;4577;48.704;9.000;2023-07-31T20:42:07;19.40;99.90
9083;DHT22;4577;48.704;9.000;2023-07-31T20:44:36;19.40;99.90
9083;DHT22;4577;48.704;9.000;2023-07-31T20:47:02;19.50;99.90
9083;DHT22;4577;48.704;9.000;2023-07-31T20:49:28;19.50;99.90
9083;DHT22;4577;48.704;9.000;2023-07-31T20:51:53;19.40;99.90
9083;DHT22;4577;48.704;9.000;2023-07-31T20:54:19;19.40;99.90
9083;DHT22;4577;48.704;9.000;2023-07-31T20:56:45;19.40;99.90
9083;DHT22;4577;48.704;9.000;2023-07-31T20:59:10;19.40;99.90
9083;DHT22;4577;48.704;9.000;2023-07-31T21:01:36;19.40;99.90
9083;DHT22;4577;48.704;9.000;2023-07-31T21:04:02;19.40;99.90
9083;DHT22;4577;48.704;9.000;2023-07-31T21:06:30;19.40;99.90
9083;DHT22;4577;48.704;9.000;2023-07-31T21:08:55;19.30;99.90
9083;DHT22;4577;48.704;9.000;2023-07-31T21:11:23;19.30;99.90
9083;DHT22;4577;48.704;9.000;2023-07-31T21:13:48;19.30;99.90
9083;DHT22;4577;48.704;9.000;2023-07-31T21:16:15;19.20;99.90
9083;DHT22;4577;48.704;9.000;2023-07-31T21:18:41;19.10;99.90
9083;DHT22;4577;48.704;9.000;2023-07-31T21:21:06;19.10;99.90
9083;DHT22;4577;48.704;9.000;2023-07-31T21:23:32;19.00;99.90
9083;DHT22;4577;48.704;9.000;2023-07-31T21:25:58;18.70;99.90
9083;DHT22;4577;48.704;9.000;2023-07-31T21:28:23;19.00;99.90
9083;DHT22;4577;48.704;9.000;2023-07-31T21:30:49;19.00;99.90
9083;DHT22;4577;48.704;9.000;2023-07-31T21:33:14;18.90;99.90
9083;DHT22;4577;48.704;9.000;2023-07-31T21:35:40;19.00;99.90
9083;DHT22;4577;48.704;9.000;2023-07-31T21:38:06;19.00;99.90
9083;DHT22;4577;48.704;9.000;2023-07-31T21:40:33;19.00;99.90
9083;DHT22;4577;48.704;9.000;2023-07-31T21:42:58;19.00;99.90
9083;DHT22;4577;48.704;9.000;2023-07-31T21:45:24;19.00;99.90
9083;DHT22;4577;48.704;9.000;2023-07-31T21:47:50;17.00;99.90
9083;DHT22;4577;48.704;9.000;2023-07-31T21:50:16;18.90;99.90
9083;DHT22;4577;48.704;9.000;2023-07-31T21:52:41;18.80;99.90
9083;DHT22;4577;48.704;9.000;2023-07-31T21:55:07;18.90;99.90
9083;DHT22;4577;48.704;9.000;2023-07-31T21:57:33;19.00;99.90
9083;DHT22;4577;48.704;9.000;2023-07-31T22:02:25;19.10;99.90
9083;DHT22;4577;48.704;9.000;2023-07-31T22:04:51;19.00;99.90
9083;DHT22;4577;48.704;9.000;2023-07-31T22:07:16;18.90;99.90
9083;DHT22;4577;48.704;9.000;2023-07-31T22:09:42;18.90;99.90
9083;DHT22;4577;48.704;9.000;2023-07-31T22:12:08;18.90;99.90
9083;DHT22;4577;48.704;9.000;2023-07-31T22:14:34;18.90;99.90
9083;DHT22;4577;48.704;9.000;2023-07-31T22:17:00;18.90;99.90
9083;DHT22;4577;48.704;9.000;2023-07-31T22:19:25;18.90;99.90
9083;DHT22;4577;48.704;9.000;2023-07-31T22:21:51;18.70;99.90
9083;DHT22;4577;48.704;9.000;2023-07-31T22:26:43;18.70;99.90
9083;DHT22;4577;48.704;9.000;2023-07-31T22:29:10;18.70;99.90
9083;DHT22;4577;48.704;9.000;2023-07-31T22:31:36;18.50;99.90
9083;DHT22;4577;48.704;9.000;2023-07-31T22:34:02;18.50;99.90
9083;DHT22;4577;48.704;9.000;2023-07-31T22:36:27;18.50;99.90
9083;DHT22;4577;48.704;9.000;2023-07-31T22:38:53;18.60;99.90
9083;DHT22;4577;48.704;9.000;2023-07-31T22:41:19;18.60;99.90
9083;DHT22;4577;48.704;9.000;2023-07-31T22:43:44;18.60;99.90
9083;DHT22;4577;48.704;9.000;2023-07-31T22:46:10;18.60;99.90
9083;DHT22;4577;48.704;9.000;2023-07-31T22:48:35;18.60;99.90
9083;DHT22;4577;48.704;9.000;2023-07-31T22:51:01;18.60;99.90
9083;DHT22;4577;48.704;9.000;2023-07-31T22:53:27;18.60;99.90
9083;DHT22;4577;48.704;9.000;2023-07-31T22:55:52;19.10;99.90
9083;DHT22;4577;48.704;9.000;2023-07-31T22:58:18;18.70;99.90
9083;DHT22;4577;48.704;9.000;2023-07-31T23:00:44;18.60;99.90
9083;DHT22;4577;48.704;9.000;2023-07-31T23:03:09;18.80;99.90
9083;DHT22;4577;48.704;9.000;2023-07-31T23:05:36;18.80;99.90
9083;DHT22;4577;48.704;9.000;2023-07-31T23:08:02;18.80;99.90
9083;DHT22;4577;48.704;9.000;2023-07-31T23:10:27;18.80;99.90
9083;DHT22;4577;48.704;9.000;2023-07-31T23:12:53;18.80;99.90
9083;DHT22;4577;48.704;9.000;2023-07-31T23:15:19;18.70;99.90
9083;DHT22;4577;48.704;9.000;2023-07-31T23:17:45;18.70;99.90